Time;durP1;ratioP1;P1;durP2;ratioP2;P2;SDS_P1;SDS_P2;PMS_P1;PMS_P2;Temp;Humidity;BMP_temperature;BMP_pressure;BME280_temperature;BME280_humidity;BME280_pressure;Samples;Min_cycle;Max_cycle;Signal;HPM_P1;HPM_P2
2022/12/11 00:02:56;;;;;;;23.67;11.40;;;;;;;;;;10398818;28;20029;-78
2022/12/11 00:07:57;;;;;;;21.30;10.02;;;;;;;;;;10381161;28;20079;-77
2022/12/11 00:12:58;;;;;;;30.37;10.57;;;;;;;;;;10267708;28;3322282;-80
2022/12/11 00:17:58;;;;;;;25.83;10.43;;;;;;;;;;10382864;28;20890;-78
2022/12/11 00:22:59;;;;;;;28.75;10.38;;;;;;;;;;10391888;28;20311;-75
2022/12/11 00:28:00;;;;;;;24.48;11.57;;;;;;;;;;10402107;28;20557;-73
2022/12/11 00:33:00;;;;;;;23.85;11.43;;;;;;;;;;10388912;28;20021;-72
2022/12/11 00:38:00;;;;;;;25.85;12.48;;;;;;;;;;10404608;28;20135;-74
2022/12/11 00:43:01;;;;;;;24.33;12.90;;;;;;;;;;10407702;28;20495;-77
2022/12/11 00:48:01;;;;;;;30.83;13.73;;;;;;;;;;10368217;28;20491;-77
2022/12/11 00:53:02;;;;;;;25.97;12.47;;;;;;;;;;10388400;28;20029;-74
2022/12/11 00:58:04;;;;;;;26.45;13.07;;;;;;;;;;10369442;28;20092;-76
2022/12/11 01:03:04;;;;;;;28.70;13.15;;;;;;;;;;10389988;28;20116;-76
2022/12/11 01:08:04;;;;;;;29.70;14.15;;;;;;;;;;10387462;28;20529;-75
2022/12/11 01:13:05;;;;;;;30.58;13.18;;;;;;;;;;10387946;28;20045;-78
2022/12/11 01:18:05;;;;;;;27.50;13.43;;;;;;;;;;10388858;28;20057;-73
2022/12/11 01:23:06;;;;;;;29.33;13.75;;;;;;;;;;10405348;28;20390;-74
2022/12/11 01:28:06;;;;;;;25.23;12.70;;;;;;;;;;10387403;28;20018;-78
2022/12/11 01:33:06;;;;;;;28.05;13.27;;;;;;;;;;10387322;28;20044;-77
2022/12/11 01:38:08;;;;;;;37.45;13.68;;;;;;;;;;10386914;28;20026;-76
2022/12/11 01:43:10;;;;;;;33.90;13.45;;;;;;;;;;10385363;28;20040;-71
2022/12/11 01:48:17;;;;;;;27.65;12.00;;;;;;;;;;10387263;28;20029;-77
2022/12/11 01:53:35;;;;;;;24.92;12.13;;;;;;;;;;10382047;28;20409;-76
2022/12/11 01:58:40;;;;;;;20.23;8.95;;;;;;;;;;10403186;28;20029;-77
2022/12/11 02:03:41;;;;;;;21.75;10.15;;;;;;;;;;10362163;28;20112;-73
2022/12/11 02:08:41;;;;;;;25.48;9.13;;;;;;;;;;10372577;28;20023;-76
2022/12/11 02:13:55;;;;;;;19.75;9.40;;;;;;;;;;10401735;28;20511;-77
2022/12/11 02:18:58;;;;;;;15.73;7.85;;;;;;;;;;10385980;28;20080;-77
2022/12/11 02:23:59;;;;;;;15.52;6.70;;;;;;;;;;10385566;28;20087;-77
2022/12/11 02:29:09;;;;;;;9.48;4.85;;;;;;;;;;10402442;28;20545;-75
2022/12/11 02:34:12;;;;;;;8.30;3.80;;;;;;;;;;10384664;28;20589;-71
2022/12/11 02:39:13;;;;;;;8.50;3.63;;;;;;;;;;10382348;28;20017;-75
2022/12/11 02:44:16;;;;;;;9.63;3.85;;;;;;;;;;10397619;28;20059;-73
2022/12/11 02:49:17;;;;;;;8.02;4.03;;;;;;;;;;10411722;28;20124;-74
2022/12/11 02:54:20;;;;;;;9.10;3.78;;;;;;;;;;10400347;28;20033;-76
2022/12/11 02:59:28;;;;;;;7.30;2.85;;;;;;;;;;10421294;28;20192;-76
2022/12/11 03:04:29;;;;;;;;;;;;;;;;;;10405739;28;20026;-77
2022/12/11 03:09:29;;;;;;;6.63;2.72;;;;;;;;;;10402851;28;20261;-74
2022/12/11 03:14:30;;;;;;;5.28;2.97;;;;;;;;;;10367329;28;20099;-80
2022/12/11 03:19:30;;;;;;;5.57;2.73;;;;;;;;;;10368468;28;20029;-78
2022/12/11 03:24:42;;;;;;;4.40;2.10;;;;;;;;;;10383718;28;20386;-81
2022/12/11 03:29:53;;;;;;;4.55;2.25;;;;;;;;;;10384867;28;20044;-77
2022/12/11 03:35:20;;;;;;;2.00;1.40;;;;;;;;;;10402859;28;20024;-81
2022/12/11 03:40:21;;;;;;;2.90;1.13;;;;;;;;;;10347323;28;20033;-75
2022/12/11 03:45:21;;;;;;;3.40;1.75;;;;;;;;;;10369202;28;20017;-78
2022/12/11 03:50:22;;;;;;;3.88;2.08;;;;;;;;;;10383568;28;20471;-78
2022/12/11 03:55:23;;;;;;;4.70;1.38;;;;;;;;;;10384300;28;20029;-74
2022/12/11 04:00:24;;;;;;;1.23;0.73;;;;;;;;;;10384697;28;20427;-79
2022/12/11 04:05:24;;;;;;;2.10;0.95;;;;;;;;;;10388928;28;20116;-80
2022/12/11 04:10:24;;;;;;;3.97;1.30;;;;;;;;;;10391196;28;20657;-77
2022/12/11 04:15:25;;;;;;;4.72;1.10;;;;;;;;;;10392249;28;20029;-77
2022/12/11 04:25:44;;;;;;;3.60;1.13;;;;;;;;;;10409235;28;20009;-78
2022/12/11 04:30:48;;;;;;;2.47;0.80;;;;;;;;;;10389964;28;20025;-77
2022/12/11 04:35:48;;;;;;;2.70;1.10;;;;;;;;;;10390734;28;20562;-74
2022/12/11 04:40:56;;;;;;;1.73;0.90;;;;;;;;;;10394155;28;20075;-79
2022/12/11 04:46:16;;;;;;;2.20;0.90;;;;;;;;;;10398858;28;20069;-79
2022/12/11 04:51:17;;;;;;;3.20;0.60;;;;;;;;;;10390198;28;20511;-78
2022/12/11 04:56:18;;;;;;;3.85;0.85;;;;;;;;;;10389302;28;20059;-76
2022/12/11 05:01:19;;;;;;;3.83;0.68;;;;;;;;;;10390054;28;20091;-77
2022/12/11 05:06:19;;;;;;;2.92;0.70;;;;;;;;;;10396231;28;20365;-77
2022/12/11 05:11:20;;;;;;;1.50;0.70;;;;;;;;;;10392446;28;20053;-75
2022/12/11 05:16:20;;;;;;;2.13;0.53;;;;;;;;;;10428123;28;20052;-73
2022/12/11 05:21:21;;;;;;;2.10;0.80;;;;;;;;;;10393914;28;20348;-71
2022/12/11 05:26:21;;;;;;;1.17;0.63;;;;;;;;;;10406265;28;20230;-76
2022/12/11 05:31:23;;;;;;;0.73;0.50;;;;;;;;;;10425166;28;20029;-76
2022/12/11 05:36:28;;;;;;;5.45;0.68;;;;;;;;;;10416318;28;20013;-77
2022/12/11 05:41:29;;;;;;;2.20;0.50;;;;;;;;;;10349166;28;20060;-77
2022/12/11 05:46:30;;;;;;;1.20;0.63;;;;;;;;;;10386867;28;20017;-79
2022/12/11 05:51:32;;;;;;;5.35;0.70;;;;;;;;;;10367905;28;20028;-73
2022/12/11 05:56:33;;;;;;;1.58;0.50;;;;;;;;;;10405940;28;20021;-73
2022/12/11 06:01:35;;;;;;;1.42;0.30;;;;;;;;;;10386211;28;20021;-77
2022/12/11 06:06:36;;;;;;;3.55;0.50;;;;;;;;;;10386044;28;20335;-74
2022/12/11 06:11:36;;;;;;;1.73;0.70;;;;;;;;;;10384758;28;20054;-78
2022/12/11 06:16:36;;;;;;;3.75;0.88;;;;;;;;;;10385781;28;20015;-78
2022/12/11 06:21:37;;;;;;;12.30;2.28;;;;;;;;;;10346090;28;20531;-74
2022/12/11 06:26:37;;;;;;;2.25;0.60;;;;;;;;;;10401880;28;20018;-79
2022/12/11 06:31:37;;;;;;;0.98;0.73;;;;;;;;;;10385166;28;20037;-79
2022/12/11 06:36:37;;;;;;;1.13;0.50;;;;;;;;;;10376559;28;20045;-78
2022/12/11 06:41:38;;;;;;;5.78;2.72;;;;;;;;;;10383800;28;20029;-74
2022/12/11 06:46:38;;;;;;;0.80;0.35;;;;;;;;;;10365293;28;20562;-80
2022/12/11 06:51:38;;;;;;;5.68;0.45;;;;;;;;;;10379769;28;20132;-78
2022/12/11 06:56:39;;;;;;;1.20;0.30;;;;;;;;;;10366647;28;20036;-82
2022/12/11 07:01:39;;;;;;;0.90;0.20;;;;;;;;;;10384102;28;20608;-75
2022/12/11 07:06:40;;;;;;;3.20;0.45;;;;;;;;;;10384241;28;20014;-82
2022/12/11 07:11:40;;;;;;;2.08;0.22;;;;;;;;;;10365911;28;20051;-79
2022/12/11 07:16:40;;;;;;;10.10;0.70;;;;;;;;;;10401396;28;20049;-74
2022/12/11 07:21:42;;;;;;;3.13;0.43;;;;;;;;;;10371942;28;20040;-77
2022/12/11 07:26:42;;;;;;;1.42;0.50;;;;;;;;;;10402232;28;20021;-79
2022/12/11 07:31:42;;;;;;;2.00;0.50;;;;;;;;;;10383122;28;20028;-76
2022/12/11 07:36:43;;;;;;;1.90;0.50;;;;;;;;;;10383017;28;20025;-79
2022/12/11 07:41:43;;;;;;;6.18;0.77;;;;;;;;;;10390877;28;20022;-74
2022/12/11 07:46:43;;;;;;;2.58;1.25;;;;;;;;;;10410507;28;20041;-78
2022/12/11 07:51:43;;;;;;;5.53;1.10;;;;;;;;;;10408144;28;20084;-78
2022/12/11 07:56:46;;;;;;;5.55;0.93;;;;;;;;;;10391713;28;20339;-77
2022/12/11 08:01:47;;;;;;;3.08;0.88;;;;;;;;;;10392623;28;20029;-74
2022/12/11 08:06:47;;;;;;;1.50;0.68;;;;;;;;;;10403739;28;20032;-71
2022/12/11 08:11:50;;;;;;;4.82;0.75;;;;;;;;;;10429608;28;20087;-75
2022/12/11 08:16:50;;;;;;;1.00;0.60;;;;;;;;;;10397269;28;20018;-72
2022/12/11 08:26:42;;;;;;;2.20;1.05;;;;;;;;;;10546914;27;20607;-78
2022/12/11 08:31:42;;;;;;;3.63;0.60;;;;;;;;;;10518905;28;20111;-78
2022/12/11 08:36:43;;;;;;;1.93;0.80;;;;;;;;;;10501794;28;20493;-78
2022/12/11 08:41:43;;;;;;;0.43;0.38;;;;;;;;;;10488119;28;20028;-72
2022/12/11 08:46:43;;;;;;;1.85;0.30;;;;;;;;;;10506517;28;20344;-71
2022/12/11 08:51:43;;;;;;;0.95;0.60;;;;;;;;;;10507446;28;20024;-73
2022/12/11 08:56:44;;;;;;;0.73;0.50;;;;;;;;;;10506352;28;20066;-73
2022/12/11 09:01:44;;;;;;;3.77;0.83;;;;;;;;;;10471163;28;20021;-74
2022/12/11 09:06:44;;;;;;;2.75;0.98;;;;;;;;;;10487510;28;20028;-73
2022/12/11 09:11:44;;;;;;;2.83;0.88;;;;;;;;;;10511761;28;20020;-75
2022/12/11 09:16:45;;;;;;;2.72;1.38;;;;;;;;;;10484544;28;20024;-71
2022/12/11 09:21:45;;;;;;;3.57;1.07;;;;;;;;;;10486202;28;20020;-72
2022/12/11 09:26:46;;;;;;;3.53;1.33;;;;;;;;;;10496022;28;20031;-76
2022/12/11 09:31:47;;;;;;;2.00;1.08;;;;;;;;;;10513915;28;20020;-72
2022/12/11 09:36:48;;;;;;;1.48;1.10;;;;;;;;;;10493614;28;20016;-72
2022/12/11 09:41:48;;;;;;;2.88;0.57;;;;;;;;;;10500917;28;20024;-71
2022/12/11 09:46:49;;;;;;;1.42;0.93;;;;;;;;;;10495773;28;20159;-78
2022/12/11 09:51:57;;;;;;;1.75;0.70;;;;;;;;;;10500092;28;20518;-77
2022/12/11 09:57:00;;;;;;;2.58;0.80;;;;;;;;;;10466437;28;20035;-79
2022/12/11 10:02:20;;;;;;;2.30;1.42;;;;;;;;;;10499507;28;20077;-76
2022/12/11 10:07:25;;;;;;;2.72;1.17;;;;;;;;;;10465365;28;20025;-75
2022/12/11 10:12:26;;;;;;;3.50;1.13;;;;;;;;;;10486643;28;20020;-73
2022/12/11 10:17:29;;;;;;;1.88;0.88;;;;;;;;;;10485507;28;20347;-77
2022/12/11 10:22:31;;;;;;;2.67;1.80;;;;;;;;;;10466225;28;20049;-76
2022/12/11 10:27:33;;;;;;;7.78;1.83;;;;;;;;;;10467118;28;20020;-78
2022/12/11 10:32:53;;;;;;;3.22;1.67;;;;;;;;;;10501334;28;20560;-77
2022/12/11 10:38:01;;;;;;;9.02;4.32;;;;;;;;;;10499777;28;20021;-77
2022/12/11 10:43:01;;;;;;;2.10;1.40;;;;;;;;;;10500786;28;20428;-78
2022/12/11 10:48:08;;;;;;;3.70;1.60;;;;;;;;;;10502687;28;20111;-76
2022/12/11 10:53:18;;;;;;;3.67;1.45;;;;;;;;;;10501983;28;20023;-77
2022/12/11 10:58:21;;;;;;;2.67;1.55;;;;;;;;;;10503673;28;20052;-76
2022/12/11 11:03:21;;;;;;;2.92;1.08;;;;;;;;;;10469353;28;20024;-76
2022/12/11 11:08:21;;;;;;;1.58;0.75;;;;;;;;;;10485734;28;20082;-78
2022/12/11 11:13:23;;;;;;;1.48;1.33;;;;;;;;;;10465775;28;20116;-78
2022/12/11 11:18:25;;;;;;;1.95;0.82;;;;;;;;;;10483445;28;20083;-80
2022/12/11 11:23:26;;;;;;;1.52;0.90;;;;;;;;;;10498900;28;20052;-78
2022/12/11 11:28:28;;;;;;;2.03;1.27;;;;;;;;;;10465362;28;20017;-78
2022/12/11 11:33:29;;;;;;;3.75;1.80;;;;;;;;;;10466200;28;20031;-77
2022/12/11 11:38:38;;;;;;;2.35;1.30;;;;;;;;;;10498093;28;20025;-79
2022/12/11 11:43:48;;;;;;;0.98;0.88;;;;;;;;;;10468090;28;20055;-77
2022/12/11 11:48:50;;;;;;;5.38;0.93;;;;;;;;;;10498760;28;20012;-77
2022/12/11 11:53:53;;;;;;;3.65;1.73;;;;;;;;;;10456650;28;20032;-76
2022/12/11 11:58:55;;;;;;;7.65;1.85;;;;;;;;;;10440101;28;20036;-78
2022/12/11 12:03:55;;;;;;;5.05;2.05;;;;;;;;;;10498283;28;20112;-74
2022/12/11 12:09:12;;;;;;;5.95;2.20;;;;;;;;;;10492181;28;20036;-71
2022/12/11 12:14:21;;;;;;;3.53;2.05;;;;;;;;;;10462993;28;20025;-76
2022/12/11 12:19:44;;;;;;;3.50;1.90;;;;;;;;;;10459579;28;20254;-78
2022/12/11 12:24:44;;;;;;;6.18;1.90;;;;;;;;;;10447196;28;20045;-78
2022/12/11 12:29:50;;;;;;;5.75;2.08;;;;;;;;;;10471920;28;20013;-78
2022/12/11 12:34:56;;;;;;;5.88;2.85;;;;;;;;;;10465960;28;20032;-76
2022/12/11 12:39:59;;;;;;;12.10;5.28;;;;;;;;;;10469989;28;20104;-76
2022/12/11 12:45:03;;;;;;;6.25;2.85;;;;;;;;;;10465074;28;20108;-78
2022/12/11 12:50:09;;;;;;;4.82;2.80;;;;;;;;;;10468191;28;20023;-79
2022/12/11 12:55:21;;;;;;;5.43;2.17;;;;;;;;;;10453782;28;20031;-73
2022/12/11 13:00:30;;;;;;;3.45;2.08;;;;;;;;;;10466329;28;20118;-81
2022/12/11 13:05:34;;;;;;;3.35;1.77;;;;;;;;;;10466444;28;20498;-73
2022/12/11 13:10:35;;;;;;;11.32;2.90;;;;;;;;;;10472613;28;20580;-78
2022/12/11 13:15:42;;;;;;;2.08;1.48;;;;;;;;;;10478312;28;20029;-79
2022/12/11 13:20:47;;;;;;;3.78;1.80;;;;;;;;;;10463017;28;20020;-77
2022/12/11 13:25:52;;;;;;;6.30;2.80;;;;;;;;;;10472214;28;20051;-73
2022/12/11 13:31:00;;;;;;;3.78;2.45;;;;;;;;;;10446695;28;20107;-74
2022/12/11 13:36:00;;;;;;;;;;;;;;;;;;10491850;28;20139;-77
2022/12/11 13:41:04;;;;;;;5.20;2.63;;;;;;;;;;10477476;28;20363;-73
2022/12/11 13:46:07;;;;;;;4.13;2.03;;;;;;;;;;10468399;28;20127;-73
2022/12/11 13:51:14;;;;;;;3.67;2.25;;;;;;;;;;10462971;28;20093;-76
2022/12/11 13:56:17;;;;;;;3.07;2.10;;;;;;;;;;10469619;28;20490;-77
2022/12/11 14:01:35;;;;;;;4.03;2.40;;;;;;;;;;10487522;28;20267;-78
2022/12/11 14:06:36;;;;;;;3.63;2.17;;;;;;;;;;10470430;28;20024;-77
2022/12/11 14:11:37;;;;;;;8.43;2.28;;;;;;;;;;10431797;28;20662;-75
2022/12/11 14:16:38;;;;;;;3.40;1.50;;;;;;;;;;10471081;28;20025;-75
2022/12/11 14:21:38;;;;;;;2.20;1.30;;;;;;;;;;10449226;28;20016;-78
2022/12/11 14:26:39;;;;;;;3.83;1.25;;;;;;;;;;10486425;28;20461;-74
2022/12/11 14:31:41;;;;;;;5.55;2.20;;;;;;;;;;10469267;28;20025;-73
2022/12/11 14:36:42;;;;;;;3.20;1.95;;;;;;;;;;10448360;28;20032;-77
2022/12/11 14:41:46;;;;;;;4.03;2.38;;;;;;;;;;10483291;28;20037;-73
2022/12/11 14:46:52;;;;;;;1.75;1.27;;;;;;;;;;10453537;28;20525;-72
2022/12/11 14:51:54;;;;;;;4.75;2.03;;;;;;;;;;10488623;28;20094;-73
2022/12/11 14:56:54;;;;;;;5.93;2.05;;;;;;;;;;10456587;28;20111;-77
2022/12/11 15:01:59;;;;;;;2.00;1.20;;;;;;;;;;10453395;28;20425;-72
2022/12/11 15:06:59;;;;;;;5.10;1.70;;;;;;;;;;10458377;28;20051;-72
2022/12/11 15:12:07;;;;;;;1.77;1.00;;;;;;;;;;10465902;28;20454;-79
2022/12/11 15:17:11;;;;;;;3.20;1.52;;;;;;;;;;10456977;28;20060;-73
2022/12/11 15:22:12;;;;;;;2.42;1.10;;;;;;;;;;10493394;28;20085;-71
2022/12/11 15:27:35;;;;;;;6.75;1.63;;;;;;;;;;10485210;28;20035;-76
2022/12/11 15:32:37;;;;;;;2.63;1.88;;;;;;;;;;10472255;28;20186;-77
2022/12/11 15:37:38;;;;;;;6.18;2.33;;;;;;;;;;10452806;28;20074;-77
2022/12/11 15:42:40;;;;;;;4.60;1.30;;;;;;;;;;10469135;28;20032;-71
2022/12/11 15:47:41;;;;;;;2.67;1.50;;;;;;;;;;10453890;28;20104;-75
2022/12/11 15:52:41;;;;;;;2.38;1.38;;;;;;;;;;10464088;28;20029;-76
2022/12/11 15:57:45;;;;;;;2.53;1.40;;;;;;;;;;10468877;28;20040;-78
2022/12/11 16:02:45;;;;;;;5.72;2.47;;;;;;;;;;10479737;28;20529;-72
2022/12/11 16:07:46;;;;;;;5.70;2.25;;;;;;;;;;10454031;28;20032;-76
2022/12/11 16:12:46;;;;;;;3.05;1.42;;;;;;;;;;10445718;28;20672;-75
2022/12/11 16:17:47;;;;;;;11.52;4.22;;;;;;;;;;10468573;28;20035;-72
2022/12/11 16:22:48;;;;;;;3.13;1.70;;;;;;;;;;10465258;28;20105;-72
2022/12/11 16:27:49;;;;;;;1.38;0.90;;;;;;;;;;10437223;28;20293;-71
2022/12/11 16:32:50;;;;;;;1.73;1.17;;;;;;;;;;10471906;28;20086;-70
2022/12/11 16:37:51;;;;;;;1.90;1.00;;;;;;;;;;10467500;28;20122;-72
2022/12/11 16:42:51;;;;;;;2.08;0.90;;;;;;;;;;10447794;28;20030;-70
2022/12/11 16:47:51;;;;;;;2.33;1.30;;;;;;;;;;10471723;28;20029;-76
2022/12/11 16:52:51;;;;;;;1.02;0.85;;;;;;;;;;10490830;22;20086;-73
2022/12/11 16:57:52;;;;;;;3.60;1.30;;;;;;;;;;10499649;28;20112;-76
2022/12/11 17:02:53;;;;;;;3.75;1.40;;;;;;;;;;10524680;28;20029;-71
2022/12/11 17:07:53;;;;;;;6.22;1.85;;;;;;;;;;10541011;28;20074;-73
2022/12/11 17:12:54;;;;;;;2.33;1.50;;;;;;;;;;10535803;28;20024;-78
2022/12/11 17:17:55;;;;;;;4.45;2.08;;;;;;;;;;10509037;28;20078;-72
2022/12/11 17:22:55;;;;;;;2.50;1.80;;;;;;;;;;10508706;28;20548;-72
2022/12/11 17:27:55;;;;;;;2.40;2.00;;;;;;;;;;10526639;28;20632;-73
2022/12/11 17:32:55;;;;;;;4.00;2.70;;;;;;;;;;10511020;28;20567;-72
2022/12/11 17:37:56;;;;;;;2.80;2.40;;;;;;;;;;10529703;28;20029;-78
2022/12/11 17:42:56;;;;;;;3.92;2.70;;;;;;;;;;10520909;28;20024;-72
2022/12/11 17:47:56;;;;;;;3.53;2.65;;;;;;;;;;10519243;28;20048;-73
2022/12/11 17:52:58;;;;;;;4.90;3.30;;;;;;;;;;10527261;22;20541;-72
2022/12/11 17:57:59;;;;;;;4.10;2.95;;;;;;;;;;10472249;28;20528;-75
2022/12/11 18:02:59;;;;;;;3.53;2.80;;;;;;;;;;10453335;28;20031;-72
2022/12/11 18:08:00;;;;;;;6.53;3.60;;;;;;;;;;10475175;28;20409;-71
2022/12/11 18:13:00;;;;;;;6.10;3.28;;;;;;;;;;10462591;28;20016;-73
2022/12/11 18:18:00;;;;;;;4.50;3.25;;;;;;;;;;10453036;28;20163;-72
2022/12/11 18:23:01;;;;;;;4.13;3.05;;;;;;;;;;10457685;28;20028;-76
2022/12/11 18:28:01;;;;;;;4.93;3.47;;;;;;;;;;10471392;28;20047;-72
2022/12/11 18:33:01;;;;;;;9.45;3.67;;;;;;;;;;10448600;28;20088;-75
2022/12/11 18:38:02;;;;;;;5.57;3.63;;;;;;;;;;10450283;28;20037;-75
2022/12/11 18:43:02;;;;;;;4.75;3.42;;;;;;;;;;10445833;28;20054;-75
2022/12/11 18:48:03;;;;;;;9.32;4.80;;;;;;;;;;10467282;28;20023;-74
2022/12/11 18:53:03;;;;;;;8.03;4.67;;;;;;;;;;10404577;28;20060;-74
2022/12/11 18:58:04;;;;;;;6.55;4.22;;;;;;;;;;10409256;28;20467;-75
2022/12/11 19:03:04;;;;;;;8.67;4.90;;;;;;;;;;10413997;28;20407;-72
2022/12/11 19:08:04;;;;;;;11.65;6.20;;;;;;;;;;10415806;28;20259;-73
2022/12/11 19:13:05;;;;;;;9.10;5.32;;;;;;;;;;10410281;28;20453;-75
2022/12/11 19:18:05;;;;;;;6.80;4.85;;;;;;;;;;10413723;28;20488;-76
2022/12/11 19:23:06;;;;;;;9.02;4.57;;;;;;;;;;10405272;28;20859;-76
2022/12/11 19:28:06;;;;;;;14.07;5.13;;;;;;;;;;10416756;28;20029;-71
2022/12/11 19:33:07;;;;;;;6.45;4.70;;;;;;;;;;10415330;28;20033;-74
2022/12/11 19:38:07;;;;;;;7.97;4.97;;;;;;;;;;10419664;28;20087;-72
2022/12/11 19:43:08;;;;;;;7.13;4.80;;;;;;;;;;10411235;28;20037;-74
2022/12/11 19:48:08;;;;;;;9.25;5.68;;;;;;;;;;10416339;28;20324;-76
2022/12/11 19:53:08;;;;;;;11.05;6.22;;;;;;;;;;10411637;28;20140;-73
2022/12/11 19:58:08;;;;;;;10.70;6.03;;;;;;;;;;10409481;28;20063;-75
2022/12/11 20:03:09;;;;;;;9.88;6.63;;;;;;;;;;10415748;28;20087;-74
2022/12/11 20:08:09;;;;;;;11.90;6.88;;;;;;;;;;10411034;28;20457;-75
2022/12/11 20:13:09;;;;;;;9.52;6.28;;;;;;;;;;10412951;28;20062;-76
2022/12/11 20:18:11;;;;;;;9.35;6.55;;;;;;;;;;10415871;28;20033;-76
2022/12/11 20:23:11;;;;;;;12.95;6.53;;;;;;;;;;10403984;28;20111;-71
2022/12/11 20:28:11;;;;;;;11.32;6.78;;;;;;;;;;10414181;28;20518;-70
2022/12/11 20:33:12;;;;;;;11.30;6.75;;;;;;;;;;10402466;28;20419;-75
2022/12/11 20:38:12;;;;;;;10.82;6.70;;;;;;;;;;10407534;28;20025;-73
2022/12/11 20:43:12;;;;;;;8.52;5.30;;;;;;;;;;10408739;28;20040;-71
2022/12/11 20:48:13;;;;;;;10.33;5.43;;;;;;;;;;10450045;28;20025;-74
2022/12/11 20:53:13;;;;;;;7.53;5.13;;;;;;;;;;10420560;28;20506;-75
2022/12/11 20:58:13;;;;;;;10.75;6.25;;;;;;;;;;10418697;28;20055;-71
2022/12/11 21:03:13;;;;;;;8.20;5.45;;;;;;;;;;10403797;28;20033;-70
2022/12/11 21:08:14;;;;;;;9.63;5.28;;;;;;;;;;10402861;28;20115;-72
2022/12/11 21:13:15;;;;;;;10.20;5.70;;;;;;;;;;10429217;28;20024;-76
2022/12/11 21:18:15;;;;;;;10.73;6.15;;;;;;;;;;10410810;28;20031;-71
2022/12/11 21:23:16;;;;;;;11.05;6.65;;;;;;;;;;10396952;28;20265;-77
2022/12/11 21:28:17;;;;;;;9.38;6.00;;;;;;;;;;10411610;28;20621;-75
2022/12/11 21:33:18;;;;;;;11.32;7.40;;;;;;;;;;10436724;28;20095;-75
2022/12/11 21:38:18;;;;;;;11.07;5.87;;;;;;;;;;10423533;28;20458;-71
2022/12/11 21:43:19;;;;;;;8.48;5.43;;;;;;;;;;10426700;28;20040;-78
2022/12/11 21:48:19;;;;;;;10.30;6.00;;;;;;;;;;10411841;28;20132;-70
2022/12/11 21:53:20;;;;;;;10.10;6.20;;;;;;;;;;10412660;28;20537;-73
2022/12/11 21:58:21;;;;;;;10.45;5.95;;;;;;;;;;10413202;28;20029;-76
2022/12/11 22:03:21;;;;;;;10.80;6.78;;;;;;;;;;10413931;28;20032;-75
2022/12/11 22:08:21;;;;;;;11.30;6.70;;;;;;;;;;10413991;28;20120;-76
2022/12/11 22:13:22;;;;;;;16.48;7.63;;;;;;;;;;10418294;28;20124;-70
2022/12/11 22:18:25;;;;;;;13.10;6.50;;;;;;;;;;10417362;28;20024;-70
2022/12/11 22:23:26;;;;;;;11.13;5.93;;;;;;;;;;10413857;28;20839;-77
2022/12/11 22:28:26;;;;;;;9.88;5.57;;;;;;;;;;10407653;28;20025;-74
2022/12/11 22:33:26;;;;;;;10.15;6.18;;;;;;;;;;10418809;28;20098;-73
2022/12/11 22:38:27;;;;;;;11.13;6.73;;;;;;;;;;10420551;28;20404;-75
2022/12/11 22:43:27;;;;;;;10.07;5.55;;;;;;;;;;10427645;28;20279;-73
2022/12/11 22:48:27;;;;;;;9.37;6.37;;;;;;;;;;10436278;28;20021;-75
2022/12/11 22:53:28;;;;;;;11.23;6.65;;;;;;;;;;10440116;28;20041;-73
2022/12/11 22:58:28;;;;;;;11.32;6.43;;;;;;;;;;10447717;28;20366;-72
2022/12/11 23:03:29;;;;;;;8.70;5.65;;;;;;;;;;10427358;28;20586;-75
2022/12/11 23:08:31;;;;;;;7.65;4.78;;;;;;;;;;10426361;28;20108;-75
2022/12/11 23:13:32;;;;;;;7.97;5.95;;;;;;;;;;10425142;28;20056;-75
2022/12/11 23:18:32;;;;;;;8.32;5.68;;;;;;;;;;10423927;28;20077;-75
2022/12/11 23:23:32;;;;;;;9.27;6.35;;;;;;;;;;10386210;28;20092;-76
2022/12/11 23:28:33;;;;;;;11.13;5.80;;;;;;;;;;10433812;28;20067;-75
2022/12/11 23:33:33;;;;;;;12.05;6.68;;;;;;;;;;10426899;28;20021;-72
2022/12/11 23:38:33;;;;;;;14.65;6.95;;;;;;;;;;10445026;28;20021;-72
2022/12/11 23:43:35;;;;;;;11.63;7.00;;;;;;;;;;10434625;28;20033;-75
2022/12/11 23:48:36;;;;;;;10.57;6.60;;;;;;;;;;10397673;28;20502;-76
2022/12/11 23:53:37;;;;;;;12.40;7.25;;;;;;;;;;10442040;28;20048;-72
2022/12/11 23:58:38;;;;;;;12.65;7.25;;;;;;;;;;10442385;28;20432;-75
